Time;durP1;ratioP1;P1;durP2;ratioP2;P2;SDS_P1;SDS_P2;PMS_P1;PMS_P2;Temp;Humidity;BMP_temperature;BMP_pressure;BME280_temperature;BME280_humidity;BME280_pressure;Samples;Min_cycle;Max_cycle;Signal;HPM_P1;HPM_P2
2023/03/10 00:00:38;;;;;;;2.90;1.60;;;11.80;1.00;;;;;;5003634;28;20692;-71
2023/03/10 00:03:03;;;;;;;2.97;1.20;;;11.80;1.00;;;;;;5011776;28;20929;-71
2023/03/10 00:05:29;;;;;;;3.20;1.30;;;11.80;1.00;;;;;;5005730;28;20553;-71
2023/03/10 00:07:54;;;;;;;1.80;1.00;;;11.90;1.00;;;;;;5007991;28;20256;-72
2023/03/10 00:10:20;;;;;;;2.80;1.70;;;11.90;1.00;;;;;;5008902;28;20209;-71
2023/03/10 00:12:45;;;;;;;1.80;1.07;;;11.90;1.00;;;;;;5011700;28;20183;-71
2023/03/10 00:15:11;;;;;;;1.90;1.20;;;11.90;1.00;;;;;;5009585;28;20191;-72
2023/03/10 00:17:37;;;;;;;2.30;1.03;;;11.90;1.00;;;;;;5012021;28;20183;-71
2023/03/10 00:20:10;;;;;;;2.10;1.20;;;11.90;1.00;;;;;;5009214;28;20500;-71
2023/03/10 00:22:35;;;;;;;1.77;1.20;;;12.00;1.00;;;;;;5011727;28;20209;-71
2023/03/10 00:25:01;;;;;;;2.60;1.20;;;11.90;1.00;;;;;;5009026;28;20457;-71
2023/03/10 00:27:26;;;;;;;4.40;1.60;;;11.90;1.00;;;;;;5009736;28;20186;-71
2023/03/10 00:29:52;;;;;;;1.97;1.03;;;11.90;1.00;;;;;;5011136;28;20581;-72
2023/03/10 00:32:18;;;;;;;7.80;1.30;;;11.90;1.00;;;;;;5010368;28;20265;-71
2023/03/10 00:34:43;;;;;;;2.13;1.30;;;11.90;1.00;;;;;;5010405;28;20414;-71
2023/03/10 00:37:09;;;;;;;2.20;1.37;;;11.90;1.00;;;;;;5011040;28;20924;-71
2023/03/10 00:39:35;;;;;;;2.47;1.17;;;11.90;1.00;;;;;;5010477;28;20212;-71
2023/03/10 00:42:00;;;;;;;1.50;1.30;;;11.90;1.00;;;;;;5010866;28;20235;-72
2023/03/10 00:44:27;;;;;;;3.40;1.43;;;11.90;1.00;;;;;;5007945;28;20202;-70
2023/03/10 00:46:53;;;;;;;1.87;1.10;;;11.80;1.00;;;;;;5009971;28;20236;-71
2023/03/10 00:49:19;;;;;;;2.43;1.20;;;11.70;1.00;;;;;;5008833;28;20432;-72
2023/03/10 00:51:44;;;;;;;3.90;1.20;;;11.60;1.00;;;;;;5010987;28;20445;-71
2023/03/10 00:54:10;;;;;;;2.47;1.00;;;11.50;1.00;;;;;;5010681;28;20179;-71
2023/03/10 00:56:35;;;;;;;1.57;1.10;;;11.50;1.00;;;;;;5009789;28;20205;-71
2023/03/10 00:59:01;;;;;;;1.53;1.00;;;11.40;1.00;;;;;;5011008;28;20193;-71
2023/03/10 01:01:29;;;;;;;2.03;1.20;;;11.30;1.00;;;;;;5009112;28;20684;-71
2023/03/10 01:03:57;;;;;;;2.67;1.30;;;11.30;1.00;;;;;;5008533;28;20202;-72
2023/03/10 01:06:23;;;;;;;1.80;1.10;;;11.20;1.00;;;;;;5007028;28;20457;-71
2023/03/10 01:08:49;;;;;;;2.70;1.20;;;11.10;1.00;;;;;;5009199;28;20433;-71
2023/03/10 01:11:17;;;;;;;7.20;1.20;;;10.90;1.00;;;;;;5008824;28;20993;-71
2023/03/10 01:13:43;;;;;;;2.40;1.10;;;10.60;1.00;;;;;;5010732;28;20784;-71
2023/03/10 01:16:09;;;;;;;1.50;1.10;;;10.60;1.00;;;;;;5009776;28;20437;-71
2023/03/10 01:18:34;;;;;;;2.67;0.97;;;10.60;1.00;;;;;;5007483;28;20941;-73
2023/03/10 01:21:00;;;;;;;1.47;1.10;;;10.50;1.00;;;;;;5009340;28;20456;-71
2023/03/10 01:23:26;;;;;;;1.43;0.90;;;10.50;1.00;;;;;;5006352;28;20738;-71
2023/03/10 01:25:52;;;;;;;1.80;1.00;;;10.40;1.00;;;;;;5009918;28;20198;-71
2023/03/10 01:28:19;;;;;;;1.43;1.03;;;10.40;1.00;;;;;;5009001;28;20805;-71
2023/03/10 01:30:49;;;;;;;2.97;1.53;;;10.50;1.80;;;;;;5004025;28;20211;-71
2023/03/10 01:33:16;;;;;;;1.80;1.00;;;10.50;5.00;;;;;;5007957;28;20441;-71
2023/03/10 01:35:42;;;;;;;3.83;1.27;;;10.50;3.10;;;;;;5008131;28;20453;-71
2023/03/10 01:38:08;;;;;;;1.30;1.10;;;10.50;5.90;;;;;;5008881;28;20441;-71
2023/03/10 01:40:35;;;;;;;2.27;1.10;;;10.50;5.60;;;;;;5010061;28;20206;-71
2023/03/10 01:43:19;;;;;;;2.43;1.20;;;10.50;6.40;;;;;;5007805;28;20452;-71
2023/03/10 01:45:44;;;;;;;1.30;1.10;;;10.50;7.60;;;;;;5002982;28;20465;-71
2023/03/10 01:48:15;;;;;;;1.87;1.37;;;10.50;11.00;;;;;;5008658;28;20436;-71
2023/03/10 01:50:43;;;;;;;4.00;1.33;;;10.50;9.50;;;;;;5009509;28;20674;-71
2023/03/10 01:53:10;;;;;;;1.93;1.10;;;10.50;9.40;;;;;;5009890;28;20598;-72
2023/03/10 01:55:49;;;;;;;3.23;1.50;;;10.50;9.60;;;;;;5007699;28;21044;-72
2023/03/10 01:58:18;;;;;;;1.83;1.10;;;10.40;9.90;;;;;;5008464;28;20819;-72
2023/03/10 02:00:43;;;;;;;3.13;1.30;;;10.40;11.00;;;;;;5009245;28;20468;-71
2023/03/10 02:03:16;;;;;;;3.27;1.10;;;10.40;12.60;;;;;;5010201;28;20432;-71
2023/03/10 02:05:51;;;;;;;1.57;1.10;;;10.30;17.00;;;;;;5007558;28;20737;-72
2023/03/10 02:08:18;;;;;;;2.20;1.20;;;10.30;15.40;;;;;;5005274;28;20445;-71
2023/03/10 02:10:45;;;;;;;1.33;1.20;;;10.30;16.40;;;;;;5009321;28;20501;-71
2023/03/10 02:13:11;;;;;;;2.20;1.20;;;10.30;19.00;;;;;;5006833;28;20801;-71
2023/03/10 02:15:38;;;;;;;3.20;1.20;;;10.30;19.80;;;;;;5007652;28;20437;-71
2023/03/10 02:18:07;;;;;;;1.93;1.00;;;10.30;19.20;;;;;;5009691;28;20183;-72
2023/03/10 02:20:51;;;;;;;1.30;1.10;;;10.20;19.30;;;;;;5007242;28;20511;-72
2023/03/10 02:23:33;;;;;;;1.40;1.17;;;10.20;20.10;;;;;;5007920;28;20855;-71
2023/03/10 02:26:16;;;;;;;1.60;1.17;;;10.30;19.50;;;;;;5008463;28;20451;-71
2023/03/10 02:28:42;;;;;;;5.67;1.37;;;10.30;19.60;;;;;;4998794;28;20448;-71
2023/03/10 02:31:09;;;;;;;2.20;1.30;;;10.20;21.90;;;;;;5004103;28;20477;-71
2023/03/10 02:33:36;;;;;;;3.20;1.27;;;10.20;22.10;;;;;;5008517;28;20904;-71
2023/03/10 02:36:22;;;;;;;2.57;1.50;;;10.20;19.50;;;;;;5011422;28;20441;-71
2023/03/10 02:38:48;;;;;;;1.57;1.20;;;10.20;21.80;;;;;;5005607;28;20437;-72
2023/03/10 02:41:28;;;;;;;2.43;1.30;;;10.20;21.40;;;;;;5011364;28;20464;-71
2023/03/10 02:43:56;;;;;;;1.70;1.57;;;10.20;20.90;;;;;;5010936;28;20519;-72
2023/03/10 02:46:22;;;;;;;3.67;1.40;;;10.30;21.10;;;;;;5010778;28;20445;-71
2023/03/10 02:48:48;;;;;;;3.37;1.70;;;10.30;19.60;;;;;;5012011;28;20465;-71
2023/03/10 02:51:17;;;;;;;5.43;1.40;;;10.30;20.20;;;;;;5011410;28;20489;-71
2023/03/10 02:53:43;;;;;;;2.57;1.50;;;10.30;19.80;;;;;;5011784;28;20187;-72
2023/03/10 02:56:09;;;;;;;2.07;1.20;;;10.40;19.40;;;;;;5011755;28;20525;-72
2023/03/10 02:58:35;;;;;;;2.77;1.80;;;10.30;19.80;;;;;;5009640;28;20190;-72
2023/03/10 03:01:00;;;;;;;4.30;1.50;;;10.40;17.40;;;;;;5006986;28;20776;-71
2023/03/10 03:03:26;;;;;;;1.70;1.40;;;10.40;14.80;;;;;;5012547;28;20516;-71
2023/03/10 03:05:52;;;;;;;1.97;1.30;;;10.40;15.10;;;;;;5011530;28;20672;-71
2023/03/10 03:08:18;;;;;;;2.93;1.57;;;10.50;14.40;;;;;;5006817;28;20191;-71
2023/03/10 03:10:44;;;;;;;3.43;1.50;;;10.50;12.70;;;;;;5008450;28;20252;-71
2023/03/10 03:13:11;;;;;;;4.50;1.53;;;10.60;11.20;;;;;;5011871;28;20433;-71
2023/03/10 03:15:36;;;;;;;2.47;1.40;;;10.60;10.60;;;;;;5009214;28;20456;-72
2023/03/10 03:18:03;;;;;;;2.00;1.50;;;10.60;10.20;;;;;;5012522;28;20429;-72
2023/03/10 03:20:30;;;;;;;7.80;1.40;;;10.60;11.10;;;;;;5010913;28;20269;-71
2023/03/10 03:22:56;;;;;;;2.43;1.50;;;10.60;10.70;;;;;;5011309;28;20785;-71
2023/03/10 03:25:23;;;;;;;2.40;1.40;;;10.60;11.20;;;;;;5011697;28;20465;-71
2023/03/10 03:27:49;;;;;;;3.90;1.60;;;10.70;10.60;;;;;;5010929;28;20935;-71
2023/03/10 03:30:20;;;;;;;3.03;1.67;;;10.60;7.40;;;;;;5010556;28;20500;-71
2023/03/10 03:32:46;;;;;;;2.33;1.67;;;10.70;7.50;;;;;;5010439;28;20442;-71
2023/03/10 03:35:15;;;;;;;14.43;1.63;;;10.70;5.50;;;;;;5009439;28;20503;-72
2023/03/10 03:37:41;;;;;;;2.60;1.33;;;10.70;5.00;;;;;;5006013;28;20186;-71
2023/03/10 03:40:11;;;;;;;2.80;1.60;;;10.70;4.70;;;;;;5010413;28;20536;-72
2023/03/10 03:42:38;;;;;;;2.90;1.27;;;10.80;1.20;;;;;;5012064;28;20780;-71
2023/03/10 03:45:04;;;;;;;4.13;1.27;;;10.80;1.00;;;;;;5007458;28;21062;-71
2023/03/10 03:47:29;;;;;;;2.80;1.23;;;10.90;1.00;;;;;;5011717;28;20773;-71
2023/03/10 03:49:55;;;;;;;2.87;1.70;;;10.90;1.00;;;;;;5010846;28;20464;-71
2023/03/10 03:52:20;;;;;;;2.07;1.20;;;10.90;1.00;;;;;;5011643;28;20183;-71
2023/03/10 03:54:46;;;;;;;2.33;1.30;;;10.90;1.00;;;;;;5010665;28;20194;-71
2023/03/10 03:57:11;;;;;;;1.70;1.30;;;11.00;1.00;;;;;;5010049;28;20201;-71
2023/03/10 03:59:37;;;;;;;2.13;1.30;;;11.00;1.00;;;;;;5011099;28;20632;-71
2023/03/10 04:02:02;;;;;;;2.67;1.30;;;11.00;1.00;;;;;;5011287;28;20273;-71
2023/03/10 04:04:28;;;;;;;2.13;1.33;;;11.10;1.00;;;;;;5009546;28;20202;-71
2023/03/10 04:06:54;;;;;;;1.70;1.30;;;11.00;1.00;;;;;;5009413;28;20218;-71
2023/03/10 04:09:20;;;;;;;1.70;1.40;;;11.10;1.00;;;;;;5009727;28;20183;-72
2023/03/10 04:11:45;;;;;;;3.10;1.20;;;11.10;1.00;;;;;;5008463;28;20504;-71
2023/03/10 04:14:11;;;;;;;1.30;1.20;;;11.00;1.00;;;;;;5009953;28;20577;-71
2023/03/10 04:16:36;;;;;;;2.40;1.17;;;11.00;1.00;;;;;;5009020;28;20178;-71
2023/03/10 04:19:02;;;;;;;1.93;1.30;;;11.00;1.00;;;;;;5011799;28;20182;-71
2023/03/10 04:21:28;;;;;;;2.63;1.20;;;11.10;1.00;;;;;;5010019;28;20211;-71
2023/03/10 04:23:54;;;;;;;1.90;1.40;;;11.10;1.00;;;;;;5011062;28;20664;-71
2023/03/10 04:26:19;;;;;;;2.30;1.50;;;11.00;1.00;;;;;;5009059;28;20438;-71
2023/03/10 04:28:45;;;;;;;2.20;1.40;;;11.00;1.00;;;;;;5007679;28;20372;-71
2023/03/10 04:31:15;;;;;;;2.20;1.20;;;11.00;1.00;;;;;;5006048;28;20198;-72
2023/03/10 04:33:41;;;;;;;2.00;1.10;;;10.90;1.00;;;;;;5007817;28;20653;-72
2023/03/10 04:36:07;;;;;;;4.20;1.40;;;10.80;1.00;;;;;;5008244;28;20457;-71
2023/03/10 04:38:32;;;;;;;2.43;1.23;;;10.70;2.50;;;;;;5009561;28;20194;-72
2023/03/10 04:40:58;;;;;;;4.00;1.63;;;10.70;2.10;;;;;;5010746;28;20707;-71
2023/03/10 04:43:24;;;;;;;2.40;1.20;;;10.70;2.70;;;;;;5009874;28;20321;-71
2023/03/10 04:45:50;;;;;;;3.03;1.30;;;10.60;3.30;;;;;;5007969;28;20206;-71
2023/03/10 04:48:15;;;;;;;2.10;1.23;;;10.70;4.60;;;;;;5010101;28;21013;-71
2023/03/10 04:50:41;;;;;;;2.70;1.07;;;10.70;4.20;;;;;;5010073;28;20681;-72
2023/03/10 04:53:07;;;;;;;2.37;1.17;;;10.70;3.20;;;;;;5009911;28;20189;-72
2023/03/10 04:55:32;;;;;;;2.87;1.50;;;10.70;1.00;;;;;;5010384;28;20218;-71
2023/03/10 04:57:58;;;;;;;1.80;1.27;;;10.60;1.00;;;;;;5009676;28;20182;-72
2023/03/10 05:00:24;;;;;;;1.80;1.30;;;10.60;1.00;;;;;;5008884;28;20218;-71
2023/03/10 05:02:49;;;;;;;2.13;1.10;;;10.60;1.30;;;;;;5009475;28;20197;-72
2023/03/10 05:05:15;;;;;;;4.50;2.00;;;10.60;1.00;;;;;;5009217;28;20206;-72
2023/03/10 05:07:41;;;;;;;3.10;1.47;;;10.70;1.00;;;;;;5010097;28;20277;-72
2023/03/10 05:10:07;;;;;;;2.20;1.37;;;10.70;1.00;;;;;;5008794;28;20202;-71
2023/03/10 05:12:33;;;;;;;3.00;1.47;;;10.80;1.00;;;;;;5007938;28;20182;-71
2023/03/10 05:14:58;;;;;;;3.00;1.60;;;10.80;1.00;;;;;;5009339;28;20451;-71
2023/03/10 05:17:26;;;;;;;3.00;1.30;;;10.80;1.00;;;;;;5008361;28;20209;-71
2023/03/10 05:19:51;;;;;;;2.33;1.30;;;10.80;1.00;;;;;;5009533;28;20199;-71
2023/03/10 05:22:17;;;;;;;3.13;1.30;;;10.80;1.00;;;;;;5007783;28;20461;-71
2023/03/10 05:24:42;;;;;;;2.20;1.40;;;11.10;1.00;;;;;;5009783;28;20206;-71
2023/03/10 05:27:09;;;;;;;6.53;1.50;;;10.60;1.00;;;;;;5010492;28;20588;-72
2023/03/10 05:29:37;;;;;;;2.90;1.50;;;10.60;1.00;;;;;;5006270;28;20182;-72
2023/03/10 05:32:03;;;;;;;4.43;1.80;;;10.50;1.00;;;;;;5009113;28;20429;-71
2023/03/10 05:34:29;;;;;;;1.90;1.37;;;10.40;1.00;;;;;;5006980;28;20959;-71
2023/03/10 05:36:55;;;;;;;1.60;1.30;;;10.40;1.00;;;;;;5007295;28;20194;-71
2023/03/10 05:39:21;;;;;;;4.03;1.60;;;10.30;1.00;;;;;;5009716;28;20483;-71
2023/03/10 05:41:47;;;;;;;1.63;1.30;;;10.30;1.00;;;;;;5008482;28;20255;-71
2023/03/10 05:44:12;;;;;;;1.33;1.17;;;10.30;1.00;;;;;;5009623;28;20628;-71
2023/03/10 05:46:38;;;;;;;2.67;1.30;;;10.30;1.00;;;;;;5007427;28;20184;-72
2023/03/10 05:49:03;;;;;;;3.00;1.33;;;10.30;1.00;;;;;;5009933;28;20186;-72
2023/03/10 05:51:29;;;;;;;3.00;1.17;;;10.30;1.00;;;;;;5008415;28;20207;-71
2023/03/10 05:53:54;;;;;;;2.03;1.07;;;10.40;1.00;;;;;;5008597;28;20265;-72
2023/03/10 05:56:21;;;;;;;2.57;1.30;;;10.40;1.00;;;;;;5010008;28;20182;-72
2023/03/10 05:58:49;;;;;;;2.80;1.40;;;10.40;1.00;;;;;;5007519;28;20186;-71
2023/03/10 06:01:15;;;;;;;2.83;1.70;;;10.40;1.00;;;;;;5008810;28;20481;-72
2023/03/10 06:03:41;;;;;;;3.37;1.20;;;10.50;1.00;;;;;;5006623;28;20442;-72
2023/03/10 06:06:07;;;;;;;2.30;1.40;;;10.50;1.00;;;;;;5007444;28;20511;-72
2023/03/10 06:08:33;;;;;;;2.30;1.20;;;10.50;1.00;;;;;;5010201;28;20194;-72
2023/03/10 06:10:58;;;;;;;3.00;1.07;;;10.60;1.00;;;;;;5013103;28;20252;-71
2023/03/10 06:13:25;;;;;;;2.13;1.40;;;10.60;1.00;;;;;;5011272;28;20313;-71
2023/03/10 06:15:56;;;;;;;4.03;1.53;;;10.70;1.00;;;;;;5011272;28;20285;-71
2023/03/10 06:18:22;;;;;;;4.10;1.60;;;10.80;1.00;;;;;;5013394;28;20856;-71
2023/03/10 06:20:48;;;;;;;5.73;1.87;;;10.80;1.00;;;;;;5012399;28;20820;-71
2023/03/10 06:23:16;;;;;;;4.80;2.00;;;10.90;1.00;;;;;;5013729;28;20425;-71
2023/03/10 06:25:42;;;;;;;4.27;1.90;;;11.00;1.00;;;;;;5010986;28;20484;-72
2023/03/10 06:28:09;;;;;;;2.93;1.57;;;11.00;1.00;;;;;;5012812;28;20472;-72
2023/03/10 06:30:35;;;;;;;4.77;2.30;;;11.00;1.00;;;;;;5008717;28;21040;-71
2023/03/10 06:33:00;;;;;;;7.53;2.23;;;11.10;1.00;;;;;;5011534;28;20437;-71
2023/03/10 06:35:27;;;;;;;4.90;1.40;;;11.10;1.00;;;;;;5011355;28;20575;-71
2023/03/10 06:37:52;;;;;;;3.07;2.00;;;11.00;1.00;;;;;;5010767;28;20240;-71
2023/03/10 06:40:18;;;;;;;5.50;2.80;;;11.00;1.00;;;;;;5013129;28;20449;-71
2023/03/10 06:42:44;;;;;;;4.47;2.30;;;11.00;1.00;;;;;;5011664;28;20424;-71
2023/03/10 06:45:14;;;;;;;3.30;1.63;;;11.00;1.00;;;;;;5011847;28;20221;-72
2023/03/10 06:47:39;;;;;;;3.87;1.97;;;11.00;1.00;;;;;;5011446;28;20182;-71
2023/03/10 06:50:06;;;;;;;2.60;1.50;;;11.10;1.00;;;;;;5012010;28;20461;-72
2023/03/10 06:52:33;;;;;;;7.33;2.40;;;11.10;1.00;;;;;;5011564;28;20262;-72
2023/03/10 06:54:59;;;;;;;7.40;2.27;;;11.00;1.00;;;;;;5011963;28;20544;-72
2023/03/10 06:57:25;;;;;;;3.90;2.17;;;11.10;1.00;;;;;;5013067;28;20483;-72
2023/03/10 06:59:50;;;;;;;3.20;1.80;;;11.20;1.00;;;;;;5011409;28;20551;-71
2023/03/10 07:02:18;;;;;;;2.90;1.70;;;12.20;1.00;;;;;;5008344;28;20198;-72
2023/03/10 07:04:44;;;;;;;3.63;1.70;;;11.50;1.00;;;;;;5005505;28;20697;-72
2023/03/10 07:07:10;;;;;;;2.93;1.83;;;11.60;1.00;;;;;;5008660;28;20476;-71
2023/03/10 07:09:35;;;;;;;4.50;1.70;;;11.70;1.00;;;;;;5007411;28;20532;-72
2023/03/10 07:12:01;;;;;;;5.17;1.80;;;11.80;1.00;;;;;;5010192;28;20183;-71
2023/03/10 07:14:26;;;;;;;3.00;1.63;;;12.10;1.00;;;;;;5008942;28;20182;-71
2023/03/10 07:16:52;;;;;;;5.13;1.67;;;12.20;1.00;;;;;;5010231;28;20182;-71
2023/03/10 07:19:17;;;;;;;5.87;2.30;;;12.40;1.00;;;;;;5009450;28;20197;-72
2023/03/10 07:21:43;;;;;;;12.00;1.70;;;12.40;1.00;;;;;;5009154;28;20210;-71
2023/03/10 07:24:08;;;;;;;3.40;1.40;;;12.30;1.00;;;;;;5006264;28;20206;-71
2023/03/10 07:26:34;;;;;;;4.77;1.67;;;12.30;1.00;;;;;;5009265;28;20552;-72
2023/03/10 07:29:01;;;;;;;3.07;1.40;;;12.30;1.00;;;;;;5007418;28;20649;-71
2023/03/10 07:31:27;;;;;;;2.30;1.43;;;12.40;1.00;;;;;;5009038;28;20209;-72
2023/03/10 07:33:52;;;;;;;3.73;1.30;;;12.40;1.00;;;;;;5007783;28;20804;-72
2023/03/10 07:36:19;;;;;;;5.47;1.63;;;12.40;1.00;;;;;;5009802;28;20549;-72
2023/03/10 07:38:45;;;;;;;2.50;1.47;;;12.50;1.00;;;;;;5010754;28;20636;-71
2023/03/10 07:41:14;;;;;;;2.58;1.40;;;12.60;1.00;;;;;;5008838;28;20431;-72
2023/03/10 07:43:40;;;;;;;2.63;1.20;;;12.60;1.00;;;;;;5009042;28;20703;-72
2023/03/10 07:46:07;;;;;;;4.73;1.57;;;12.40;1.00;;;;;;5003827;28;20461;-72
2023/03/10 07:48:33;;;;;;;3.23;1.33;;;12.40;1.00;;;;;;5011415;28;20190;-72
2023/03/10 07:50:59;;;;;;;1.73;1.20;;;12.30;1.00;;;;;;5005735;28;20461;-73
2023/03/10 07:53:25;;;;;;;2.80;1.27;;;12.30;1.00;;;;;;5104464;22;20253;-72
2023/03/10 07:55:50;;;;;;;1.43;0.93;;;12.40;1.00;;;;;;5043821;28;20189;-72
2023/03/10 07:58:16;;;;;;;8.43;1.10;;;12.40;1.00;;;;;;5041012;28;20673;-71
2023/03/10 08:00:42;;;;;;;2.70;1.57;;;12.50;1.00;;;;;;5045365;28;20190;-71
2023/03/10 08:03:07;;;;;;;2.27;1.33;;;12.20;1.00;;;;;;5032629;28;20448;-71
2023/03/10 08:05:37;;;;;;;3.63;1.17;;;12.20;1.00;;;;;;5032262;28;20250;-71
2023/03/10 08:08:03;;;;;;;1.00;0.90;;;11.90;1.00;;;;;;5023814;28;20184;-70
2023/03/10 08:10:28;;;;;;;2.07;0.80;;;11.90;1.00;;;;;;5026290;28;20445;-70
2023/03/10 08:12:54;;;;;;;1.07;0.80;;;12.10;1.00;;;;;;5020045;28;20236;-70
2023/03/10 08:15:19;;;;;;;1.50;0.90;;;11.80;1.00;;;;;;5049728;28;20181;-71
2023/03/10 08:17:45;;;;;;;2.70;1.10;;;14.30;1.00;;;;;;5042514;28;20215;-70
2023/03/10 08:20:11;;;;;;;1.97;1.00;;;11.60;1.00;;;;;;5045297;28;20257;-71
2023/03/10 08:22:36;;;;;;;7.03;0.80;;;11.50;1.00;;;;;;5047533;28;20205;-71
2023/03/10 08:25:02;;;;;;;2.70;1.03;;;11.40;1.00;;;;;;5030784;28;20200;-70
2023/03/10 08:27:27;;;;;;;1.47;0.90;;;11.40;1.00;;;;;;5049907;28;20188;-71
2023/03/10 08:29:53;;;;;;;2.37;0.90;;;11.40;1.00;;;;;;5040969;28;20724;-71
2023/03/10 08:32:18;;;;;;;3.40;1.13;;;11.40;1.00;;;;;;5036210;28;20229;-70
2023/03/10 08:34:45;;;;;;;2.33;1.10;;;11.40;1.00;;;;;;5047911;28;20177;-71
2023/03/10 08:37:11;;;;;;;2.90;1.10;;;11.40;1.00;;;;;;5029028;28;20591;-71
2023/03/10 08:39:36;;;;;;;2.50;1.03;;;11.40;1.00;;;;;;5049132;28;20431;-71
2023/03/10 08:42:02;;;;;;;4.00;1.40;;;11.40;1.00;;;;;;5036800;28;20227;-71
2023/03/10 08:44:28;;;;;;;2.47;1.33;;;11.50;1.00;;;;;;5047474;28;20205;-68
2023/03/10 08:46:53;;;;;;;3.20;1.03;;;11.40;1.00;;;;;;5027839;28;20435;-71
2023/03/10 08:49:20;;;;;;;2.83;1.20;;;11.40;1.00;;;;;;5042683;28;20555;-72
2023/03/10 08:51:47;;;;;;;4.47;1.33;;;11.40;1.00;;;;;;5043897;28;20189;-72
2023/03/10 08:54:14;;;;;;;4.60;1.20;;;11.50;1.00;;;;;;5027903;28;20958;-72
2023/03/10 08:56:40;;;;;;;2.30;1.00;;;11.40;1.00;;;;;;5031319;28;20428;-72
2023/03/10 08:59:06;;;;;;;2.77;1.23;;;11.40;1.00;;;;;;5035490;28;20622;-72
2023/03/10 09:01:34;;;;;;;3.40;1.20;;;11.50;1.00;;;;;;5023854;28;20432;-72
2023/03/10 09:04:02;;;;;;;3.83;1.40;;;11.60;1.00;;;;;;5035705;28;20272;-72
2023/03/10 09:06:28;;;;;;;3.17;1.30;;;12.00;1.00;;;;;;5050319;28;20960;-71
2023/03/10 09:08:53;;;;;;;5.33;1.27;;;12.00;1.00;;;;;;5025811;28;20475;-71
2023/03/10 09:11:23;;;;;;;2.23;1.30;;;12.20;1.00;;;;;;5045708;28;20459;-71
2023/03/10 09:13:48;;;;;;;4.40;1.40;;;12.40;1.00;;;;;;5025791;28;20205;-71
2023/03/10 09:16:15;;;;;;;3.60;1.43;;;12.30;1.00;;;;;;5046902;28;20447;-72
2023/03/10 09:18:41;;;;;;;6.93;1.70;;;12.40;1.00;;;;;;5043403;28;20719;-71
2023/03/10 09:21:09;;;;;;;3.53;1.80;;;12.90;1.00;;;;;;5048748;28;20637;-71
2023/03/10 09:23:35;;;;;;;4.50;1.50;;;14.40;1.00;;;;;;5023705;28;20478;-70
2023/03/10 09:26:00;;;;;;;9.37;1.83;;;15.50;1.00;;;;;;5045451;28;20471;-72
2023/03/10 09:28:26;;;;;;;4.00;1.70;;;16.10;1.00;;;;;;5047653;28;20558;-72
2023/03/10 09:30:53;;;;;;;7.90;1.60;;;16.30;1.00;;;;;;5043219;28;20186;-72
2023/03/10 09:33:20;;;;;;;5.77;1.50;;;14.70;1.00;;;;;;5043247;28;20197;-72
2023/03/10 09:35:48;;;;;;;2.90;1.20;;;14.40;1.00;;;;;;5047198;28;20439;-72
2023/03/10 09:38:14;;;;;;;3.10;1.50;;;13.90;1.00;;;;;;5040922;28;20472;-72
2023/03/10 09:40:57;;;;;;;8.03;1.90;;;14.00;1.00;;;;;;5030550;28;20977;-72
2023/03/10 09:43:23;;;;;;;7.00;1.70;;;13.70;1.00;;;;;;5027572;28;20880;-72
2023/03/10 09:45:59;;;;;;;3.50;1.53;;;13.30;1.00;;;;;;5026802;28;21061;-72
2023/03/10 09:48:43;;;;;;;8.43;1.90;;;13.30;1.00;;;;;;5045115;28;20439;-72
2023/03/10 09:51:21;;;;;;;4.60;1.70;;;13.10;1.00;;;;;;5019599;28;20482;-72
2023/03/10 09:54:07;;;;;;;3.43;1.40;;;13.10;1.00;;;;;;5047550;28;20500;-69
2023/03/10 09:56:35;;;;;;;4.50;1.50;;;13.60;1.00;;;;;;5042154;28;20784;-72
2023/03/10 09:59:13;;;;;;;4.20;1.43;;;12.90;1.00;;;;;;5037081;28;20450;-72
2023/03/10 10:01:43;;;;;;;3.67;1.53;;;12.80;1.00;;;;;;5025117;28;20435;-72
2023/03/10 10:04:10;;;;;;;9.60;2.30;;;12.60;1.00;;;;;;5030421;28;20461;-72
2023/03/10 10:06:38;;;;;;;11.93;1.80;;;12.20;1.00;;;;;;5024499;28;20428;-69
2023/03/10 10:09:10;;;;;;;5.73;1.57;;;12.20;1.00;;;;;;5040764;28;20506;-72
2023/03/10 10:11:36;;;;;;;8.30;1.87;;;12.10;1.00;;;;;;5030645;28;20480;-73
2023/03/10 10:14:18;;;;;;;6.27;2.20;;;11.90;1.00;;;;;;5020745;28;20485;-71
2023/03/10 10:16:57;;;;;;;2.43;1.37;;;11.80;1.00;;;;;;5035574;28;20261;-71
2023/03/10 10:19:26;;;;;;;5.03;1.53;;;11.70;1.00;;;;;;5047269;28;20478;-72
2023/03/10 10:21:51;;;;;;;6.43;1.93;;;11.80;1.00;;;;;;5045634;28;20524;-72
2023/03/10 10:24:18;;;;;;;5.83;1.93;;;11.80;1.00;;;;;;5035311;28;20969;-72
2023/03/10 10:26:44;;;;;;;5.30;2.10;;;11.80;1.00;;;;;;5039131;28;20209;-72
2023/03/10 10:29:25;;;;;;;5.30;1.70;;;11.90;1.00;;;;;;5042944;28;20453;-71
2023/03/10 10:32:05;;;;;;;7.47;1.40;;;12.20;1.00;;;;;;5025425;28;20265;-72
2023/03/10 10:34:31;;;;;;;4.57;1.80;;;12.30;1.00;;;;;;5024594;28;20994;-72
2023/03/10 10:36:58;;;;;;;6.00;1.90;;;12.30;1.00;;;;;;5042534;28;20446;-72
2023/03/10 10:39:31;;;;;;;4.40;2.10;;;12.00;1.00;;;;;;5027270;28;21040;-72
2023/03/10 10:42:24;;;;;;;8.53;1.80;;;12.00;1.00;;;;;;5041252;28;20447;-71
2023/03/10 10:45:42;;;;;;;9.17;1.80;;;11.80;1.00;;;;;;5036453;28;20482;-71
2023/03/10 10:48:33;;;;;;;1.77;1.23;;;11.90;1.00;;;;;;5026086;28;20451;-72
2023/03/10 10:50:59;;;;;;;3.80;1.70;;;11.90;1.00;;;;;;5039931;28;20432;-72
2023/03/10 10:53:25;;;;;;;6.93;1.70;;;14.20;1.00;;;;;;5021684;28;21005;-71
2023/03/10 10:56:04;;;;;;;3.60;1.43;;;12.30;1.00;;;;;;5043430;28;20590;-71
2023/03/10 10:58:35;;;;;;;6.73;1.33;;;12.40;1.00;;;;;;5023750;28;20468;-72
2023/03/10 11:01:11;;;;;;;3.67;1.43;;;12.60;1.00;;;;;;5024822;28;20440;-71
2023/03/10 11:03:37;;;;;;;2.50;1.33;;;;;;;;;;5050213;28;20470;-71
2023/03/10 11:06:23;;;;;;;6.00;1.50;;;13.30;1.00;;;;;;5050798;28;20553;-72
2023/03/10 11:08:52;;;;;;;3.07;1.23;;;13.10;1.00;;;;;;5038585;28;20186;-71
2023/03/10 11:11:32;;;;;;;1.60;1.10;;;12.60;1.00;;;;;;5048306;28;20437;-71
2023/03/10 11:14:09;;;;;;;4.33;1.50;;;12.60;1.00;;;;;;5028448;28;20828;-72
2023/03/10 11:16:52;;;;;;;3.20;1.30;;;12.60;1.00;;;;;;5047077;28;20446;-74
2023/03/10 11:19:24;;;;;;;1.83;1.00;;;12.50;1.00;;;;;;5020857;28;20484;-72
2023/03/10 11:21:53;;;;;;;2.40;0.90;;;12.30;1.00;;;;;;5031854;28;20443;-73
2023/03/10 11:24:21;;;;;;;2.10;1.00;;;12.40;1.00;;;;;;5038287;28;20824;-73
2023/03/10 11:26:54;;;;;;;2.50;1.10;;;12.30;1.00;;;;;;5044551;28;20434;-72
2023/03/10 11:29:54;;;;;;;1.47;0.90;;;12.40;1.00;;;;;;5023202;28;20482;-71
2023/03/10 11:32:32;;;;;;;1.40;0.93;;;12.50;1.00;;;;;;5026878;28;20467;-72
2023/03/10 11:34:57;;;;;;;1.53;1.07;;;;;;;;;;5041360;28;20451;-72
2023/03/10 11:37:33;;;;;;;7.10;1.63;;;12.60;1.00;;;;;;5043461;28;20428;-72
2023/03/10 11:40:10;;;;;;;1.70;1.10;;;12.50;1.00;;;;;;5027080;28;20188;-72
2023/03/10 11:43:01;;;;;;;1.53;1.00;;;12.50;1.00;;;;;;5034281;28;20924;-72
2023/03/10 11:45:45;;;;;;;5.20;1.40;;;12.70;1.00;;;;;;5042851;28;20517;-71
2023/03/10 11:48:19;;;;;;;1.40;0.80;;;12.40;1.00;;;;;;5046148;28;20436;-71
2023/03/10 11:50:51;;;;;;;3.03;0.80;;;12.20;1.00;;;;;;5025689;28;20849;-68
2023/03/10 11:53:42;;;;;;;2.47;1.00;;;12.00;1.00;;;;;;5033036;28;20467;-70
2023/03/10 11:56:11;;;;;;;2.87;1.07;;;11.80;1.00;;;;;;5051139;28;20908;-69
2023/03/10 11:58:45;;;;;;;1.50;1.10;;;11.70;1.00;;;;;;5038894;28;20965;-70
2023/03/10 12:01:14;;;;;;;2.80;0.90;;;11.60;1.00;;;;;;5027279;28;20980;-72
2023/03/10 12:04:04;;;;;;;4.93;1.40;;;11.40;1.00;;;;;;5052053;28;20459;-69
2023/03/10 12:07:14;;;;;;;2.60;1.00;;;11.20;1.00;;;;;;5025046;28;20589;-72
2023/03/10 12:09:41;;;;;;;3.60;1.10;;;11.00;1.00;;;;;;4997859;28;20474;-73
2023/03/10 12:12:13;;;;;;;2.43;1.20;;;11.40;1.00;;;;;;5049412;28;20516;-73
2023/03/10 12:14:40;;;;;;;1.10;0.90;;;11.70;1.00;;;;;;5042744;28;20432;-73
2023/03/10 12:17:11;;;;;;;1.47;1.00;;;11.90;1.00;;;;;;5049475;28;20424;-73
2023/03/10 12:20:11;;;;;;;1.50;0.90;;;11.80;1.00;;;;;;5030217;28;20473;-72
2023/03/10 12:22:49;;;;;;;2.30;1.07;;;11.60;1.00;;;;;;5030024;28;20454;-75
2023/03/10 12:25:26;;;;;;;1.63;0.83;;;11.60;1.00;;;;;;5026122;28;20549;-72
2023/03/10 12:28:12;;;;;;;1.40;1.00;;;11.90;1.00;;;;;;5038415;28;20440;-72
2023/03/10 12:30:50;;;;;;;2.20;0.90;;;11.90;1.00;;;;;;5027410;28;20435;-72
2023/03/10 12:33:36;;;;;;;1.30;0.90;;;11.90;1.00;;;;;;5043622;28;20464;-72
2023/03/10 12:36:13;;;;;;;1.10;1.00;;;12.30;1.00;;;;;;5043170;28;20431;-72
2023/03/10 12:38:39;;;;;;;1.30;1.00;;;11.80;1.00;;;;;;5042971;28;20926;-71
2023/03/10 12:41:05;;;;;;;1.23;0.80;;;12.60;1.00;;;;;;5023247;28;20451;-72
2023/03/10 12:43:46;;;;;;;1.67;1.00;;;11.40;1.00;;;;;;5038599;28;20205;-72
2023/03/10 12:46:23;;;;;;;2.17;0.80;;;11.40;1.00;;;;;;5039950;28;20554;-72
2023/03/10 12:49:01;;;;;;;1.20;0.70;;;11.50;1.00;;;;;;5049435;28;20436;-73
2023/03/10 12:51:31;;;;;;;1.80;1.20;;;11.20;1.00;;;;;;5046157;28;20488;-72
2023/03/10 12:54:15;;;;;;;1.00;0.80;;;11.20;1.00;;;;;;5043948;28;20497;-70
2023/03/10 12:56:56;;;;;;;1.20;1.00;;;11.10;1.00;;;;;;5044513;28;20435;-72
2023/03/10 12:59:39;;;;;;;2.33;0.97;;;10.90;1.00;;;;;;5025194;28;20980;-72
2023/03/10 13:02:25;;;;;;;2.80;0.90;;;10.80;1.00;;;;;;5042592;28;20455;-72
2023/03/10 13:04:58;;;;;;;1.97;1.17;;;10.60;1.00;;;;;;5024312;28;20464;-74